Time;durP1;ratioP1;P1;durP2;ratioP2;P2;SDS_P1;SDS_P2;PMS_P1;PMS_P2;Temp;Humidity;BMP_temperature;BMP_pressure;BME280_temperature;BME280_humidity;BME280_pressure;Samples;Min_cycle;Max_cycle;Signal;HPM_P1;HPM_P2
2022/11/26 00:02:21;;;;;;;17.00;8.63;;;;;;;5.32;100.00;102318.97;4986211;28;20188;-72
2022/11/26 00:04:47;;;;;;;20.50;9.13;;;;;;;5.27;100.00;102326.31;4984178;28;20211;-72
2022/11/26 00:07:16;;;;;;;15.97;8.50;;;;;;;5.17;100.00;102323.97;4989388;28;20208;-72
2022/11/26 00:09:41;;;;;;;15.73;7.90;;;;;;;5.14;100.00;102327.94;4988006;28;20244;-73
2022/11/26 00:12:29;;;;;;;12.60;8.20;;;;;;;5.12;100.00;102329.50;4986025;28;20256;-73
2022/11/26 00:14:55;;;;;;;10.93;7.17;;;;;;;4.99;100.00;102334.56;4986028;28;20237;-73
2022/11/26 00:17:21;;;;;;;14.13;7.77;;;;;;;4.94;100.00;102335.94;4986193;28;20961;-72
2022/11/26 00:19:46;;;;;;;12.00;7.40;;;;;;;4.87;100.00;102336.28;4986236;28;20226;-72
2022/11/26 00:22:29;;;;;;;12.27;7.60;;;;;;;4.83;100.00;102337.75;4973460;28;20192;-73
2022/11/26 00:24:55;;;;;;;10.57;6.97;;;;;;;4.78;100.00;102346.72;4991116;28;20188;-73
2022/11/26 00:27:24;;;;;;;11.20;7.13;;;;;;;4.73;100.00;102339.56;4985632;28;20304;-72
2022/11/26 00:29:50;;;;;;;13.43;7.37;;;;;;;4.71;100.00;102346.22;4986389;28;20187;-72
2022/11/26 00:32:21;;;;;;;14.47;7.97;;;;;;;4.65;100.00;102353.44;4985531;28;20201;-72
2022/11/26 00:34:47;;;;;;;14.17;7.93;;;;;;;4.58;100.00;102353.78;4983861;28;20192;-72
2022/11/26 00:37:26;;;;;;;12.43;7.17;;;;;;;4.53;100.00;102365.28;4987051;28;20568;-72
2022/11/26 00:39:53;;;;;;;15.10;7.90;;;;;;;4.50;100.00;102363.41;4970371;28;20242;-72
2022/11/26 00:42:19;;;;;;;16.87;8.77;;;;;;;4.49;100.00;102364.19;4987411;28;20188;-71
2022/11/26 00:44:44;;;;;;;15.07;7.50;;;;;;;4.42;100.00;102363.69;4987454;28;20187;-71
2022/11/26 00:47:10;;;;;;;14.70;8.00;;;;;;;4.37;100.00;102367.56;4988616;28;20360;-72
2022/11/26 00:49:36;;;;;;;14.87;7.53;;;;;;;4.28;100.00;102377.06;4987356;28;20313;-72
2022/11/26 00:52:02;;;;;;;14.73;8.60;;;;;;;4.25;100.00;102379.38;4970076;28;20192;-71
2022/11/26 00:54:28;;;;;;;25.37;8.70;;;;;;;4.26;100.00;102387.09;4988848;28;20196;-71
2022/11/26 00:56:54;;;;;;;20.80;9.23;;;;;;;4.24;100.00;102388.63;4989415;28;20223;-72
2022/11/26 00:59:21;;;;;;;19.47;10.17;;;;;;;4.29;100.00;102388.97;4981839;28;20268;-71
2022/11/26 01:01:48;;;;;;;14.27;8.57;;;;;;;4.28;100.00;102394.81;4985615;28;20257;-72
2022/11/26 01:04:14;;;;;;;14.43;8.57;;;;;;;4.30;100.00;102394.16;4983677;28;20451;-72
2022/11/26 01:06:42;;;;;;;15.50;9.03;;;;;;;4.30;100.00;102398.31;4979177;28;20302;-71
2022/11/26 01:09:26;;;;;;;18.17;9.13;;;;;;;4.28;100.00;102395.69;4987120;28;20193;-72
2022/11/26 01:11:52;;;;;;;16.37;8.70;;;;;;;4.24;100.00;102401.31;4991561;28;20222;-72
2022/11/26 01:14:19;;;;;;;15.57;9.00;;;;;;;4.21;100.00;102411.25;4972291;28;20976;-72
2022/11/26 01:16:46;;;;;;;15.60;8.03;;;;;;;4.13;100.00;102414.91;4987409;28;20492;-72
2022/11/26 01:19:14;;;;;;;13.57;7.93;;;;;;;4.09;100.00;102417.13;4975467;28;20191;-72
2022/11/26 01:21:40;;;;;;;18.17;8.53;;;;;;;4.05;100.00;102413.47;4983134;28;20698;-72
2022/11/26 01:24:06;;;;;;;14.07;9.20;;;;;;;4.05;100.00;102422.75;4991785;28;20275;-72
2022/11/26 01:26:37;;;;;;;14.17;7.83;;;;;;;4.00;100.00;102429.16;4987803;28;20215;-72
2022/11/26 01:29:02;;;;;;;16.50;8.30;;;;;;;3.91;100.00;102425.97;4981422;28;20680;-72
2022/11/26 01:31:29;;;;;;;20.07;9.27;;;;;;;3.87;100.00;102434.97;4965829;28;20201;-72
2022/11/26 01:33:56;;;;;;;18.93;9.10;;;;;;;3.82;100.00;102443.03;4981503;28;20192;-71
2022/11/26 01:36:29;;;;;;;15.27;7.87;;;;;;;3.77;100.00;102442.69;4983180;28;20301;-72
2022/11/26 01:38:57;;;;;;;21.87;9.20;;;;;;;3.70;100.00;102439.59;4983190;28;20271;-72
2022/11/26 01:41:33;;;;;;;21.40;10.13;;;;;;;3.63;100.00;102445.03;4984823;28;20222;-72
2022/11/26 01:43:59;;;;;;;29.03;11.70;;;;;;;3.63;100.00;102445.88;4985761;28;20241;-72
2022/11/26 01:46:25;;;;;;;29.20;13.00;;;;;;;3.55;100.00;102451.16;4977969;28;20235;-71
2022/11/26 01:48:51;;;;;;;29.17;13.30;;;;;;;3.51;100.00;102455.13;4990030;28;20199;-72
2022/11/26 01:51:24;;;;;;;29.23;12.80;;;;;;;3.48;100.00;102459.06;4993153;28;20179;-71
2022/11/26 01:54:00;;;;;;;27.60;11.77;;;;;;;3.40;100.00;102462.72;4993903;28;20202;-72
2022/11/26 01:56:26;;;;;;;25.13;12.60;;;;;;;3.40;100.00;102468.63;4993209;28;20295;-72
2022/11/26 01:59:07;;;;;;;19.43;11.50;;;;;;;3.43;100.00;102463.81;4990622;28;20236;-71
2022/11/26 02:01:33;;;;;;;28.30;12.57;;;;;;;3.47;100.00;102467.44;4974606;28;20219;-71
2022/11/26 02:04:07;;;;;;;28.57;12.60;;;;;;;3.49;100.00;102473.53;4989470;28;20364;-71
2022/11/26 02:06:33;;;;;;;22.90;11.40;;;;;;;3.48;100.00;102464.13;4991153;28;20211;-71
2022/11/26 02:09:02;;;;;;;23.60;10.90;;;;;;;3.51;100.00;102474.50;4991514;28;20199;-72
2022/11/26 02:11:27;;;;;;;22.13;11.63;;;;;;;3.51;100.00;102472.88;4974670;28;20199;-71
2022/11/26 02:14:16;;;;;;;32.23;11.87;;;;;;;3.50;100.00;102481.19;4992128;28;20184;-71
2022/11/26 02:17:00;;;;;;;26.57;9.73;;;;;;;3.41;100.00;102484.72;4977056;28;20266;-71
2022/11/26 02:20:03;;;;;;;20.17;9.97;;;;;;;3.34;100.00;102490.09;4974127;28;20212;-71
2022/11/26 02:22:37;;;;;;;23.20;10.10;;;;;;;3.25;100.00;102487.75;4991497;28;20191;-72
2022/11/26 02:25:15;;;;;;;24.37;9.23;;;;;;;3.19;100.00;102487.31;4991141;28;20199;-71
2022/11/26 02:28:28;;;;;;;23.90;9.80;;;;;;;3.15;100.00;102492.00;4989266;28;20691;-72
2022/11/26 02:31:15;;;;;;;12.33;8.13;;;;;;;3.12;100.00;102500.25;4972840;28;20312;-72
2022/11/26 02:33:56;;;;;;;21.87;9.40;;;;;;;3.12;100.00;102500.25;4987654;28;20188;-72
2022/11/26 02:36:38;;;;;;;13.63;8.20;;;;;;;3.04;100.00;102508.03;4995465;28;20204;-72
2022/11/26 02:39:16;;;;;;;9.37;7.07;;;;;;;3.02;100.00;102510.44;4963767;28;20220;-72
2022/11/26 02:41:49;;;;;;;15.77;7.20;;;;;;;2.96;100.00;102510.00;4991513;28;20724;-72
2022/11/26 02:44:18;;;;;;;14.33;7.80;;;;;;;2.94;100.00;102516.56;4993961;28;20184;-72
2022/11/26 02:46:48;;;;;;;18.93;7.73;;;;;;;2.90;100.00;102518.75;4976879;28;20196;-72
2022/11/26 02:49:19;;;;;;;21.37;8.40;;;;;;;2.83;100.00;102524.09;4974635;28;20237;-72
2022/11/26 02:51:48;;;;;;;19.03;8.30;;;;;;;2.78;100.00;102520.34;4970908;28;20192;-72
2022/11/26 02:54:15;;;;;;;18.13;8.10;;;;;;;2.75;100.00;102526.03;4973658;28;20354;-72
2022/11/26 02:56:41;;;;;;;17.20;8.20;;;;;;;2.68;100.00;102525.47;4992481;28;20216;-72
2022/11/26 02:59:07;;;;;;;28.00;9.17;;;;;;;2.63;100.00;102535.22;4995026;28;20199;-72
2022/11/26 03:01:41;;;;;;;14.10;8.10;;;;;;;2.67;100.00;102523.69;4988183;28;20220;-72
2022/11/26 03:04:15;;;;;;;15.57;7.40;;;;;;;2.71;100.00;102533.28;4990037;28;20194;-72
2022/11/26 03:06:41;;;;;;;15.97;7.60;;;;;;;2.71;100.00;102531.63;4995157;28;20215;-72
2022/11/26 03:09:07;;;;;;;15.80;6.60;;;;;;;2.71;100.00;102540.88;4990532;28;20192;-72
2022/11/26 03:11:32;;;;;;;11.30;6.83;;;;;;;2.76;100.00;102540.44;4990525;28;20279;-72
2022/11/26 03:13:58;;;;;;;17.63;7.53;;;;;;;2.73;100.00;102547.81;4990634;28;20196;-72
2022/11/26 03:16:23;;;;;;;13.67;6.63;;;;;;;2.74;100.00;102544.50;4992560;28;20212;-72
2022/11/26 03:18:49;;;;;;;37.13;8.50;;;;;;;2.69;100.00;102548.34;4992166;28;20620;-72
2022/11/26 03:21:14;;;;;;;28.70;7.20;;;;;;;2.65;100.00;102553.91;4993052;28;20236;-72
2022/11/26 03:23:40;;;;;;;26.70;9.67;;;;;;;2.59;100.00;102561.03;4994049;28;20200;-73
2022/11/26 03:26:05;;;;;;;16.57;7.07;;;;;;;2.60;100.00;102561.88;4990898;28;20240;-72
2022/11/26 03:28:31;;;;;;;34.17;8.40;;;;;;;2.54;100.00;102563.94;4973768;28;20208;-72
2022/11/26 03:30:56;;;;;;;37.07;8.20;;;;;;;2.51;100.00;102568.75;4990599;28;20696;-72
2022/11/26 03:33:22;;;;;;;22.57;7.80;;;;;;;2.51;100.00;102574.69;4986000;28;20199;-72
2022/11/26 03:35:48;;;;;;;22.97;8.43;;;;;;;2.53;100.00;102573.16;4986864;28;20209;-72
2022/11/26 03:38:14;;;;;;;34.30;7.50;;;;;;;2.50;100.00;102579.63;4986344;28;20188;-72
2022/11/26 03:40:39;;;;;;;45.40;9.37;;;;;;;2.53;100.00;102573.16;4990580;28;21018;-72
2022/11/26 03:43:05;;;;;;;35.47;8.67;;;;;;;2.55;100.00;102571.66;4990158;28;20363;-72
2022/11/26 03:45:30;;;;;;;23.57;8.17;;;;;;;2.56;100.00;102573.41;4976641;28;20239;-72
2022/11/26 03:47:56;;;;;;;29.80;9.10;;;;;;;2.60;100.00;102579.59;4994850;28;20192;-72
2022/11/26 03:50:21;;;;;;;34.80;9.80;;;;;;;2.59;100.00;102572.78;4994445;28;20697;-72
2022/11/26 03:52:47;;;;;;;32.20;9.67;;;;;;;2.61;100.00;102578.81;4975990;28;20187;-72
2022/11/26 03:55:12;;;;;;;42.40;10.10;;;;;;;2.64;100.00;102574.91;4991879;28;20192;-72
2022/11/26 03:57:38;;;;;;;28.57;9.70;;;;;;;2.63;100.00;102583.25;4999926;28;20211;-72
2022/11/26 04:00:05;;;;;;;31.37;9.83;;;;;;;2.63;100.00;102579.84;4988680;28;20223;-72
2022/11/26 04:02:32;;;;;;;31.20;10.73;;;;;;;2.64;100.00;102579.06;4991973;28;20219;-72
2022/11/26 04:04:57;;;;;;;35.13;11.27;;;;;;;2.68;100.00;102584.50;4972955;28;20219;-72
2022/11/26 04:07:23;;;;;;;45.03;10.87;;;;;;;2.68;100.00;102592.09;4996599;28;20216;-72
2022/11/26 04:09:48;;;;;;;50.60;12.83;;;;;;;2.68;100.00;102592.09;4977224;28;20199;-72
2022/11/26 04:12:14;;;;;;;49.77;12.03;;;;;;;2.75;100.00;102591.78;4985906;28;20193;-72
2022/11/26 04:14:39;;;;;;;39.33;11.53;;;;;;;2.77;100.00;102595.34;4973302;28;20191;-71
2022/11/26 04:17:05;;;;;;;38.13;13.30;;;;;;;2.84;100.00;102604.25;4985995;28;20211;-72
2022/11/26 04:19:30;;;;;;;46.27;12.53;;;;;;;2.90;100.00;102604.75;4988405;28;20227;-72
2022/11/26 04:21:56;;;;;;;40.07;11.67;;;;;;;2.92;100.00;102599.06;4990701;28;20195;-73
2022/11/26 04:24:21;;;;;;;25.43;12.57;;;;;;;2.99;100.00;102600.41;4992846;28;21109;-72
2022/11/26 04:26:46;;;;;;;45.90;13.47;;;;;;;3.02;100.00;102596.47;4993388;28;20294;-71
2022/11/26 04:29:12;;;;;;;43.50;13.77;;;;;;;3.08;100.00;102601.13;4994329;28;20218;-72
2022/11/26 04:31:37;;;;;;;32.77;13.47;;;;;;;3.13;100.00;102600.69;4992810;28;20253;-72
2022/11/26 04:34:03;;;;;;;36.73;13.50;;;;;;;3.18;100.00;102601.94;4995845;28;20188;-71
2022/11/26 04:36:28;;;;;;;32.67;13.73;;;;;;;3.21;100.00;102607.22;4976629;28;20211;-72
2022/11/26 04:38:54;;;;;;;26.90;12.40;;;;;;;3.29;100.00;102607.81;4972210;28;20192;-72
2022/11/26 04:41:19;;;;;;;45.23;15.07;;;;;;;3.32;100.00;102608.06;4986994;28;20219;-72
2022/11/26 04:43:44;;;;;;;25.30;12.83;;;;;;;3.38;100.00;102606.88;4986844;28;20658;-72
2022/11/26 04:46:10;;;;;;;36.37;13.73;;;;;;;3.44;100.00;102608.97;4991577;28;20631;-72
2022/11/26 04:48:35;;;;;;;30.37;12.77;;;;;;;3.50;100.00;102612.84;4970805;28;20613;-73
2022/11/26 04:51:01;;;;;;;33.57;14.27;;;;;;;3.54;100.00;102614.00;4982880;28;20260;-73
2022/11/26 04:53:26;;;;;;;34.27;13.73;;;;;;;3.57;100.00;102615.09;4984178;28;20258;-73
2022/11/26 04:55:52;;;;;;;38.60;13.90;;;;;;;3.62;100.00;102625.56;4994016;28;20208;-72
2022/11/26 04:58:18;;;;;;;31.13;13.37;;;;;;;3.65;100.00;102625.78;4970200;28;20220;-72
2022/11/26 05:00:44;;;;;;;29.10;14.33;;;;;;;3.68;100.00;102637.03;4986680;28;20215;-72
2022/11/26 05:03:10;;;;;;;35.60;14.30;;;;;;;3.74;100.00;102639.16;4988165;28;20203;-72
2022/11/26 05:05:35;;;;;;;39.30;14.73;;;;;;;3.78;100.00;102638.63;4990031;28;20227;-72
2022/11/26 05:08:01;;;;;;;39.43;15.83;;;;;;;3.82;100.00;102645.69;4989313;28;20197;-72
2022/11/26 05:10:26;;;;;;;36.57;14.83;;;;;;;3.85;100.00;102649.31;4983705;28;20254;-72
2022/11/26 05:12:52;;;;;;;41.17;15.73;;;;;;;3.90;100.00;102648.00;4970702;28;20193;-72
2022/11/26 05:15:17;;;;;;;50.77;18.07;;;;;;;3.95;100.00;102646.69;4987082;28;20266;-72
2022/11/26 05:17:42;;;;;;;39.27;16.70;;;;;;;4.00;100.00;102647.06;4984775;28;20195;-72
2022/11/26 05:20:09;;;;;;;39.33;16.13;;;;;;;4.02;100.00;102643.88;4975999;28;20212;-73
2022/11/26 05:22:34;;;;;;;39.77;16.93;;;;;;;4.08;100.00;102648.47;4987770;28;20202;-72
2022/11/26 05:25:00;;;;;;;42.00;17.57;;;;;;;4.11;100.00;102642.00;4989891;28;20216;-72
2022/11/26 05:27:25;;;;;;;47.17;17.77;;;;;;;4.17;100.00;102650.06;4993246;28;20215;-73
2022/11/26 05:29:50;;;;;;;57.17;20.20;;;;;;;4.24;100.00;102657.31;4989043;28;20570;-72
2022/11/26 05:32:16;;;;;;;62.57;21.80;;;;;;;4.35;100.00;102659.00;4991852;28;20199;-73
2022/11/26 05:34:42;;;;;;;42.27;17.67;;;;;;;4.39;100.00;102662.66;4989249;28;20191;-72
2022/11/26 05:37:07;;;;;;;53.23;20.13;;;;;;;4.44;100.00;102663.84;4993432;28;20654;-72
2022/11/26 05:39:33;;;;;;;44.83;18.40;;;;;;;4.47;100.00;102659.88;4989180;28;20199;-72
2022/11/26 05:41:58;;;;;;;49.27;21.20;;;;;;;4.54;100.00;102668.81;4988682;28;20222;-72
2022/11/26 05:44:23;;;;;;;53.97;20.40;;;;;;;4.57;100.00;102669.06;4991323;28;20196;-73
2022/11/26 05:46:49;;;;;;;48.83;21.07;;;;;;;4.62;100.00;102670.25;4989533;28;20685;-72
2022/11/26 05:49:14;;;;;;;54.00;22.10;;;;;;;4.75;100.00;102676.31;4991753;28;20199;-72
2022/11/26 05:51:40;;;;;;;53.47;21.93;;;;;;;4.83;100.00;102680.28;4991442;28;20188;-72
2022/11/26 05:54:06;;;;;;;52.07;21.47;;;;;;;4.89;100.00;102682.41;4989363;28;20220;-72
2022/11/26 05:56:32;;;;;;;60.27;22.97;;;;;;;4.95;100.00;102691.34;4989745;28;20296;-72
2022/11/26 05:58:57;;;;;;;46.90;20.77;;;;;;;5.06;100.00;102687.88;4988925;28;20224;-72
2022/11/26 06:01:23;;;;;;;58.93;23.50;;;;;;;5.10;100.00;102684.78;4988470;28;20323;-72
2022/11/26 06:03:48;;;;;;;59.87;22.23;;;;;;;5.20;100.00;102684.66;4971486;28;20219;-72
2022/11/26 06:06:14;;;;;;;53.30;21.87;;;;;;;5.22;100.00;102690.75;4993990;28;20212;-72
2022/11/26 06:08:39;;;;;;;56.87;21.97;;;;;;;5.26;100.00;102690.19;4991211;28;20196;-73
2022/11/26 06:11:05;;;;;;;48.03;20.80;;;;;;;5.30;100.00;102687.06;4987758;28;20215;-72
2022/11/26 06:13:30;;;;;;;49.30;22.67;;;;;;;5.33;100.00;102694.00;4989353;28;20208;-73
2022/11/26 06:15:56;;;;;;;63.20;24.77;;;;;;;5.36;100.00;102692.59;4974482;28;20215;-73
2022/11/26 06:18:21;;;;;;;63.73;23.83;;;;;;;5.42;100.00;102694.66;4988544;28;20195;-73
2022/11/26 06:20:47;;;;;;;65.43;23.87;;;;;;;5.44;100.00;102703.28;4985985;28;20239;-72
2022/11/26 06:23:12;;;;;;;53.50;22.77;;;;;;;5.47;100.00;102704.38;4986709;28;20196;-73
2022/11/26 06:25:41;;;;;;;62.17;23.10;;;;;;;5.52;100.00;102704.69;4972963;28;20274;-72
2022/11/26 06:28:07;;;;;;;70.33;25.80;;;;;;;5.56;100.00;102710.09;4969878;28;20184;-73
2022/11/26 06:30:32;;;;;;;64.57;24.47;;;;;;;5.57;100.00;102708.44;4991524;28;20557;-73
2022/11/26 06:32:58;;;;;;;60.07;23.63;;;;;;;5.62;100.00;102707.09;4988240;28;20216;-73
2022/11/26 06:35:23;;;;;;;72.93;27.00;;;;;;;5.63;100.00;102713.94;4990269;28;20276;-72
2022/11/26 06:37:49;;;;;;;70.40;27.10;;;;;;;5.64;100.00;102711.50;4988045;28;20275;-73
2022/11/26 06:40:17;;;;;;;71.93;26.20;;;;;;;5.66;100.00;102719.25;4986969;28;20217;-73
2022/11/26 06:42:50;;;;;;;75.20;25.43;;;;;;;5.70;100.00;102721.19;4987461;28;20183;-73
2022/11/26 06:45:16;;;;;;;74.27;26.43;;;;;;;5.75;100.00;102719.88;4992330;28;20223;-73
2022/11/26 06:47:41;;;;;;;71.70;26.37;;;;;;;5.75;100.00;102718.19;4988936;28;20187;-73
2022/11/26 06:50:07;;;;;;;67.37;26.90;;;;;;;5.78;100.00;102732.75;4987131;28;20185;-72
2022/11/26 06:52:32;;;;;;;89.00;28.57;;;;;;;5.81;100.00;102738.09;4991501;28;20208;-72
2022/11/26 06:54:58;;;;;;;75.00;27.60;;;;;;;5.82;100.00;102744.94;4986486;28;20196;-72
2022/11/26 06:57:23;;;;;;;83.97;29.90;;;;;;;5.85;100.00;102747.72;4986618;28;20208;-72
2022/11/26 06:59:50;;;;;;;86.40;30.20;;;;;;;5.85;100.00;102743.47;4986288;28;20198;-72
2022/11/26 07:02:15;;;;;;;83.20;29.33;;;;;;;5.86;100.00;102755.44;4985459;28;20188;-73
2022/11/26 07:04:41;;;;;;;98.10;29.87;;;;;;;5.86;100.00;102752.00;4985536;28;20303;-72
2022/11/26 07:07:06;;;;;;;77.17;29.03;;;;;;;5.87;100.00;102753.75;4985254;28;20295;-72
2022/11/26 07:09:31;;;;;;;93.70;31.17;;;;;;;5.88;100.00;102752.97;4990540;28;20669;-72
2022/11/26 07:11:57;;;;;;;88.47;29.63;;;;;;;5.92;100.00;102760.94;4992896;28;20191;-72
2022/11/26 07:14:23;;;;;;;87.33;29.97;;;;;;;5.93;100.00;102762.69;4991821;28;20198;-72
2022/11/26 07:16:48;;;;;;;91.17;31.17;;;;;;;5.94;100.00;102763.59;4994472;28;20222;-72
2022/11/26 07:19:14;;;;;;;93.10;30.93;;;;;;;5.97;100.00;102766.31;4995356;28;20188;-72
2022/11/26 07:21:39;;;;;;;96.10;30.77;;;;;;;5.97;100.00;102764.66;4995806;28;20243;-72
2022/11/26 07:24:05;;;;;;;113.40;31.73;;;;;;;5.99;100.00;102767.31;4987707;28;20225;-73
2022/11/26 07:26:31;;;;;;;97.10;31.07;;;;;;;5.99;100.00;102768.19;4979536;28;20223;-73
2022/11/26 07:28:56;;;;;;;122.93;32.90;;;;;;;6.00;100.00;102769.09;4978987;28;20193;-72
2022/11/26 07:31:23;;;;;;;97.43;29.93;;;;;;;5.99;100.00;102773.28;4981037;28;20675;-72
2022/11/26 07:33:49;;;;;;;105.03;32.20;;;;;;;5.98;100.00;102774.06;4981974;28;20276;-72
2022/11/26 07:36:20;;;;;;;92.57;32.47;;;;;;;6.01;100.00;102783.56;4980609;28;20300;-72
2022/11/26 07:38:45;;;;;;;90.63;30.60;;;;;;;6.04;100.00;102788.84;4982128;28;20193;-72
2022/11/26 07:41:14;;;;;;;106.93;33.03;;;;;;;6.06;100.00;102785.66;4986072;28;20212;-73
2022/11/26 07:43:41;;;;;;;98.83;32.60;;;;;;;6.10;100.00;102791.81;4975565;28;20188;-72
2022/11/26 07:46:09;;;;;;;98.43;30.27;;;;;;;6.10;100.00;102795.25;4985565;28;20223;-72
2022/11/26 07:48:35;;;;;;;97.70;31.33;;;;;;;6.10;100.00;102791.81;4990755;28;20660;-72
2022/11/26 07:51:00;;;;;;;103.60;31.33;;;;;;;6.08;100.00;102798.47;4989991;28;20192;-72
2022/11/26 07:53:27;;;;;;;114.60;32.97;;;;;;;6.08;100.00;102799.31;4983786;28;20231;-72
2022/11/26 07:55:53;;;;;;;108.90;32.30;;;;;;;6.08;100.00;102798.47;4986209;28;20209;-72
2022/11/26 07:58:18;;;;;;;105.13;33.40;;;;;;;6.06;100.00;102800.00;4993328;28;20723;-72
2022/11/26 08:00:44;;;;;;;113.90;33.33;;;;;;;6.04;100.00;102804.13;4972395;28;20220;-72
2022/11/26 08:03:09;;;;;;;109.77;31.73;;;;;;;6.02;100.00;102798.91;4991425;28;20215;-72
2022/11/26 08:05:40;;;;;;;111.43;32.03;;;;;;;6.02;100.00;102806.53;4991353;28;20224;-73
2022/11/26 08:08:05;;;;;;;107.73;33.17;;;;;;;6.03;100.00;102808.31;4990646;28;20280;-72
2022/11/26 08:10:30;;;;;;;113.37;32.07;;;;;;;6.02;100.00;102818.38;4990313;28;20219;-72
2022/11/26 08:12:56;;;;;;;90.87;31.53;;;;;;;6.01;100.00;102817.50;4989159;28;20193;-72
2022/11/26 08:15:21;;;;;;;100.23;32.93;;;;;;;5.99;100.00;102823.25;4983098;28;20290;-72
2022/11/26 08:17:47;;;;;;;86.33;30.53;;;;;;;5.99;100.00;102831.75;4984467;28;20191;-72
2022/11/26 08:20:13;;;;;;;94.43;32.40;;;;;;;5.99;100.00;102818.16;4992591;28;20314;-72
2022/11/26 08:22:38;;;;;;;98.80;32.30;;;;;;;6.02;100.00;102828.53;4988657;28;20264;-72
2022/11/26 08:25:04;;;;;;;90.20;30.77;;;;;;;6.02;100.00;102831.97;4988079;28;20191;-72
2022/11/26 08:27:33;;;;;;;86.57;30.00;;;;;;;6.02;100.00;102839.59;4989847;28;20226;-72
2022/11/26 08:29:58;;;;;;;96.43;31.10;;;;;;;5.98;100.00;102842.69;4994332;28;20192;-72
2022/11/26 08:32:23;;;;;;;84.60;31.57;;;;;;;5.98;100.00;102842.69;4990769;28;20253;-73
2022/11/26 08:34:49;;;;;;;94.63;31.47;;;;;;;6.00;100.00;102842.81;4987796;28;20224;-71
2022/11/26 08:37:14;;;;;;;90.70;31.57;;;;;;;6.02;100.00;102838.69;4990546;28;20761;-72
2022/11/26 08:39:40;;;;;;;84.70;30.53;;;;;;;6.05;100.00;102841.47;4973180;28;20203;-72
2022/11/26 08:42:05;;;;;;;91.30;30.73;;;;;;;6.06;100.00;102845.78;4988076;28;20227;-72
2022/11/26 08:44:30;;;;;;;86.27;31.77;;;;;;;6.06;100.00;102841.56;4971476;28;20211;-72
2022/11/26 08:46:56;;;;;;;86.27;30.40;;;;;;;6.07;100.00;102848.44;4968969;28;20219;-72
2022/11/26 08:49:21;;;;;;;68.40;29.20;;;;;;;6.01;100.00;102844.56;4986786;28;20191;-72
2022/11/26 08:51:47;;;;;;;73.50;28.20;;;;;;;6.04;100.00;102845.66;4967546;28;20930;-72
2022/11/26 08:54:12;;;;;;;71.33;31.47;;;;;;;6.09;100.00;102851.97;4982476;28;20278;-72
2022/11/26 08:56:38;;;;;;;80.90;30.30;;;;;;;6.12;100.00;102854.72;4984405;28;20224;-72
2022/11/26 08:59:03;;;;;;;81.23;30.33;;;;;;;6.20;100.00;102861.22;4986180;28;20180;-72
2022/11/26 09:01:31;;;;;;;79.50;32.03;;;;;;;6.22;100.00;102854.56;4990526;28;20701;-72
2022/11/26 09:03:58;;;;;;;83.00;31.13;;;;;;;6.20;100.00;102851.03;4990197;28;20198;-72
2022/11/26 09:06:26;;;;;;;90.07;32.33;;;;;;;6.18;100.00;102857.66;4991704;28;20275;-72
2022/11/26 09:11:39;;;;;;;77.20;30.57;;;;;;;6.31;100.00;102864.50;4979824;28;20215;-72
2022/11/26 09:14:05;;;;;;;80.03;30.90;;;;;;;6.33;100.00;102862.94;4979318;28;20538;-72
2022/11/26 09:16:31;;;;;;;79.10;31.50;;;;;;;6.32;100.00;102856.97;4983028;28;20281;-72
2022/11/26 09:18:59;;;;;;;78.70;30.97;;;;;;;6.37;100.00;102854.75;4982849;28;20231;-72
2022/11/26 09:21:24;;;;;;;73.27;28.83;;;;;;;6.39;100.00;102865.88;4986081;28;20216;-72
2022/11/26 09:23:50;;;;;;;76.70;31.17;;;;;;;6.42;100.00;102850.84;4985988;28;20399;-72
2022/11/26 09:26:19;;;;;;;78.00;30.87;;;;;;;6.42;100.00;102848.31;4986320;28;20221;-72
2022/11/26 09:28:46;;;;;;;75.73;31.23;;;;;;;6.50;100.00;102852.25;4982071;28;20188;-72
2022/11/26 09:31:11;;;;;;;81.20;31.23;;;;;;;6.59;100.00;102850.34;4990830;28;20223;-71
2022/11/26 09:33:36;;;;;;;80.40;31.07;;;;;;;6.53;100.00;102850.78;4988621;28;20196;-72
2022/11/26 09:36:07;;;;;;;81.33;30.93;;;;;;;6.55;100.00;102854.34;4983483;28;20220;-72
2022/11/26 09:38:33;;;;;;;85.57;31.97;;;;;;;6.53;100.00;102850.78;4985966;28;20196;-72
2022/11/26 09:41:21;;;;;;;83.43;33.23;;;;;;;6.62;100.00;102866.69;4986539;28;20628;-72
2022/11/26 09:44:13;;;;;;;75.83;31.07;;;;;;;6.72;100.00;102860.56;4981694;28;20195;-72
2022/11/26 09:47:04;;;;;;;78.50;30.73;;;;;;;6.70;100.00;102864.66;4987875;28;20258;-72
2022/11/26 09:49:36;;;;;;;75.80;29.37;;;;;;;6.71;100.00;102867.31;4977125;28;20192;-72
2022/11/26 09:52:05;;;;;;;70.97;30.10;;;;;;;6.74;100.00;102864.97;4990367;28;20740;-72
2022/11/26 09:54:30;;;;;;;71.10;30.30;;;;;;;6.80;100.00;102877.22;4993310;28;20278;-72
2022/11/26 09:57:27;;;;;;;73.60;30.17;;;;;;;6.88;100.00;102878.59;4990569;28;20331;-72
2022/11/26 09:59:55;;;;;;;69.47;26.90;;;;;;;7.06;100.00;102882.38;4972155;28;20889;-72
2022/11/26 10:02:20;;;;;;;60.20;26.83;;;;;;;7.04;100.00;102883.94;4979871;28;20189;-72
2022/11/26 10:04:47;;;;;;;61.37;27.00;;;;;;;7.06;100.00;102888.38;4973240;28;20196;-72
2022/11/26 10:07:59;;;;;;;59.40;27.17;;;;;;;7.15;100.00;102885.53;4979795;28;20211;-73
2022/11/26 10:10:44;;;;;;;58.33;25.87;;;;;;;7.21;100.00;102891.00;4980349;28;20199;-73
2022/11/26 10:13:42;;;;;;;58.43;25.00;;;;;;;7.21;100.00;102893.56;4982468;28;20197;-73
2022/11/26 10:16:29;;;;;;;57.70;23.93;;;;;;;7.22;100.00;102892.78;4963075;28;20224;-72
2022/11/26 10:19:01;;;;;;;53.90;24.77;;;;;;;7.15;100.00;102891.53;4992436;28;20284;-72
2022/11/26 10:21:39;;;;;;;53.63;24.63;;;;;;;7.27;100.00;102897.41;4992325;28;20264;-72
2022/11/26 10:24:14;;;;;;;50.83;22.77;;;;;;;7.23;100.00;102890.34;4987907;28;20226;-73
2022/11/26 10:26:40;;;;;;;45.03;22.23;;;;;;;7.26;100.00;102888.00;4985413;28;20652;-73
2022/11/26 10:29:15;;;;;;;49.40;24.30;;;;;;;7.35;100.00;102896.25;4995152;28;20216;-73
2022/11/26 10:31:44;;;;;;;47.47;23.43;;;;;;;7.35;100.00;102891.16;4981311;28;20226;-72
2022/11/26 10:34:17;;;;;;;51.47;24.23;;;;;;;7.39;100.00;102898.22;4988660;28;20195;-72
2022/11/26 10:36:44;;;;;;;46.47;24.27;;;;;;;7.41;100.00;102901.72;4983251;28;20251;-72
2022/11/26 10:39:16;;;;;;;50.30;23.70;;;;;;;7.37;100.00;102901.44;4992260;28;20194;-72
2022/11/26 10:41:42;;;;;;;54.83;24.00;;;;;;;7.42;100.00;102905.16;4989261;28;20264;-73
2022/11/26 10:44:40;;;;;;;46.27;22.10;;;;;;;7.40;100.00;102910.16;4975792;28;20560;-72
2022/11/26 10:47:18;;;;;;;50.23;23.33;;;;;;;7.39;100.00;102910.94;4963272;28;20217;-72
2022/11/26 10:49:44;;;;;;;44.07;21.27;;;;;;;7.45;100.00;102906.25;4978432;28;20674;-72
2022/11/26 10:52:15;;;;;;;42.07;21.77;;;;;;;7.68;100.00;102903.50;4979660;28;20212;-73
2022/11/26 10:54:43;;;;;;;42.07;20.73;;;;;;;8.00;100.00;102903.88;4968045;28;20567;-73
2022/11/26 10:57:08;;;;;;;34.50;18.50;;;;;;;8.18;100.00;102906.66;4984438;28;20633;-73
2022/11/26 10:59:43;;;;;;;38.17;18.57;;;;;;;7.83;100.00;102913.81;4970212;28;20191;-72
2022/11/26 11:02:35;;;;;;;34.30;18.47;;;;;;;7.78;100.00;102913.50;4978662;28;20670;-73
2022/11/26 11:05:04;;;;;;;33.10;16.80;;;;;;;7.71;100.00;102915.56;4984234;28;20569;-73
2022/11/26 11:07:33;;;;;;;33.90;17.80;;;;;;;7.71;100.00;102921.56;4988611;28;20715;-73
2022/11/26 11:10:16;;;;;;;40.43;18.60;;;;;;;7.60;100.00;102922.50;4989539;28;20196;-73
2022/11/26 11:12:47;;;;;;;37.27;19.07;;;;;;;7.61;100.00;102929.38;4985119;28;20203;-73
2022/11/26 11:15:19;;;;;;;39.83;19.83;;;;;;;7.56;100.00;102924.78;4985890;28;20196;-73
2022/11/26 11:17:52;;;;;;;36.60;19.03;;;;;;;7.55;100.00;102923.88;4985737;28;20193;-73
2022/11/26 11:20:17;;;;;;;39.43;20.20;;;;;;;7.52;100.00;102921.16;4983649;28;20227;-73
2022/11/26 11:22:43;;;;;;;38.03;19.17;;;;;;;7.50;100.00;102912.50;4982345;28;20207;-72